Time;durP1;ratioP1;P1;durP2;ratioP2;P2;SDS_P1;SDS_P2;PMS_P1;PMS_P2;Temp;Humidity;BMP_temperature;BMP_pressure;BME280_temperature;BME280_humidity;BME280_pressure;Samples;Min_cycle;Max_cycle;Signal;HPM_P1;HPM_P2
2022/03/01 00:01:24;;;;;;;;;;;19.90;36.60;;;;;;5108576;28;19927;-43
2022/03/01 00:03:51;;;;;;;;;;;19.90;36.60;;;;;;5109371;28;19923;-43
2022/03/01 00:06:17;;;;;;;;;;;19.90;36.50;;;;;;5126296;27;19969;-45
2022/03/01 00:08:44;;;;;;;;;;;19.90;36.50;;;;;;5097445;28;19919;-45
2022/03/01 00:11:11;;;;;;;;;;;19.90;36.50;;;;;;5110838;28;20437;-46
2022/03/01 00:13:38;;;;;;;;;;;19.90;36.60;;;;;;5112427;28;19927;-45
2022/03/01 00:16:05;;;;;;;;;;;19.90;36.60;;;;;;5112427;28;19920;-46
2022/03/01 00:18:34;;;;;;;;;;;19.90;36.50;;;;;;5092369;28;19920;-45
2022/03/01 00:21:00;;;;;;;;;;;19.90;36.60;;;;;;5097929;28;19985;-47
2022/03/01 00:23:27;;;;;;;;;;;19.90;36.50;;;;;;5097156;28;19920;-45
2022/03/01 00:25:54;;;;;;;;;;;19.90;36.50;;;;;;5092298;28;19920;-43
2022/03/01 00:28:20;;;;;;;;;;;19.90;36.50;;;;;;5093648;28;20019;-46
2022/03/01 00:30:47;;;;;;;;;;;19.90;36.50;;;;;;5123869;27;19986;-43
2022/03/01 00:33:14;;;;;;;;;;;19.90;36.50;;;;;;5094000;28;19920;-43
2022/03/01 00:35:42;;;;;;;;;;;19.90;36.50;;;;;;5114875;28;19967;-45
2022/03/01 00:38:09;;;;;;;;;;;19.90;36.50;;;;;;5093242;28;19920;-45
2022/03/01 00:40:35;;;;;;;;;;;19.90;36.50;;;;;;5113287;28;19920;-47
2022/03/01 00:43:02;;;;;;;;;;;19.90;36.40;;;;;;5097159;28;20268;-45
2022/03/01 00:45:29;;;;;;;;;;;19.90;36.40;;;;;;5109273;28;19973;-43
2022/03/01 00:47:55;;;;;;;;;;;19.90;36.40;;;;;;5114115;28;19919;-48
2022/03/01 00:50:22;;;;;;;;;;;19.90;36.40;;;;;;5112119;28;19920;-43
2022/03/01 00:52:51;;;;;;;;;;;19.90;36.40;;;;;;5095668;28;19969;-45
2022/03/01 00:55:17;;;;;;;;;;;19.90;36.40;;;;;;5094279;28;20245;-43
2022/03/01 00:57:44;;;;;;;;;;;19.90;36.30;;;;;;5108851;28;20010;-45
2022/03/01 01:00:12;;;;;;;;;;;19.90;36.30;;;;;;5097293;28;19942;-43
2022/03/01 01:02:39;;;;;;;;;;;19.90;36.30;;;;;;5092265;28;19920;-47
2022/03/01 01:05:08;;;;;;;;;;;19.90;36.30;;;;;;5089923;28;19926;-47
2022/03/01 01:07:34;;;;;;;;;;;19.90;36.30;;;;;;5111520;27;20364;-46
2022/03/01 01:10:03;;;;;;;;;;;19.90;36.30;;;;;;5106295;28;19935;-43
2022/03/01 01:12:30;;;;;;;;;;;19.90;36.30;;;;;;5097049;28;20006;-44
2022/03/01 01:14:57;;;;;;;;;;;19.90;36.30;;;;;;5080350;28;20388;-45
2022/03/01 01:17:23;;;;;;;;;;;19.90;36.30;;;;;;5099765;28;20339;-44
2022/03/01 01:19:50;;;;;;;;;;;19.90;36.30;;;;;;5114417;28;19920;-45
2022/03/01 01:25:03;;;;;;;;;;;19.90;36.20;;;;;;5111929;28;20391;-45
2022/03/01 01:27:30;;;;;;;;;;;19.90;36.20;;;;;;5100245;28;20257;-45
2022/03/01 01:29:57;;;;;;;;;;;19.90;36.20;;;;;;5115523;28;19920;-44
2022/03/01 01:32:23;;;;;;;;;;;19.90;36.20;;;;;;5093900;28;19919;-46
2022/03/01 01:34:50;;;;;;;;;;;19.90;36.20;;;;;;5116783;28;20040;-43
2022/03/01 01:37:18;;;;;;;;;;;19.90;36.20;;;;;;5104203;28;19969;-45
2022/03/01 01:39:45;;;;;;;;;;;19.90;36.10;;;;;;5076857;28;19926;-45
2022/03/01 01:42:13;;;;;;;;;;;19.90;36.10;;;;;;5113906;28;20448;-45
2022/03/01 01:44:40;;;;;;;;;;;19.90;36.10;;;;;;5094653;28;20325;-44
2022/03/01 01:47:07;;;;;;;;;;;19.90;36.10;;;;;;5093704;28;20372;-45
2022/03/01 01:49:34;;;;;;;;;;;19.90;36.10;;;;;;5131557;27;19927;-43
2022/03/01 01:52:00;;;;;;;;;;;19.90;36.10;;;;;;5130382;27;19920;-43
2022/03/01 01:54:27;;;;;;;;;;;19.90;36.10;;;;;;5100217;28;19920;-43
2022/03/01 01:56:54;;;;;;;;;;;19.90;36.10;;;;;;5132384;27;19957;-46
2022/03/01 01:59:22;;;;;;;;;;;19.90;36.00;;;;;;5096104;28;19926;-43
2022/03/01 02:01:48;;;;;;;;;;;19.90;36.10;;;;;;5115664;28;20256;-45
2022/03/01 02:04:15;;;;;;;;;;;19.90;36.00;;;;;;5114825;28;19962;-46
2022/03/01 02:06:49;;;;;;;;;;;19.80;35.90;;;;;;5110595;28;19920;-43
2022/03/01 02:09:16;;;;;;;;;;;19.90;36.00;;;;;;5093757;28;19989;-46
2022/03/01 02:11:43;;;;;;;;;;;19.90;36.00;;;;;;5075805;28;19951;-45
2022/03/01 02:14:09;;;;;;;;;;;19.90;36.00;;;;;;5112756;28;20303;-43
2022/03/01 02:16:37;;;;;;;;;;;19.90;36.00;;;;;;5094756;28;19943;-44
2022/03/01 02:19:04;;;;;;;;;;;19.90;36.10;;;;;;5091058;28;19981;-43
2022/03/01 02:21:32;;;;;;;;;;;19.90;36.00;;;;;;5078049;28;19920;-46
2022/03/01 02:23:59;;;;;;;;;;;19.90;36.00;;;;;;5075049;28;19926;-47
2022/03/01 02:26:26;;;;;;;;;;;19.90;36.00;;;;;;5095291;28;20456;-47
2022/03/01 02:28:52;;;;;;;;;;;19.90;36.00;;;;;;5115025;28;20018;-43
2022/03/01 02:31:19;;;;;;;;;;;19.90;35.90;;;;;;5113699;28;19931;-44
2022/03/01 02:33:46;;;;;;;;;;;19.90;35.90;;;;;;5093062;28;19955;-46
2022/03/01 02:36:13;;;;;;;;;;;19.80;35.80;;;;;;5075955;28;20254;-45
2022/03/01 02:38:41;;;;;;;;;;;19.80;35.80;;;;;;5104501;28;20430;-46
2022/03/01 02:41:09;;;;;;;;;;;19.80;35.80;;;;;;5112967;28;19962;-47
2022/03/01 02:43:36;;;;;;;;;;;19.80;35.80;;;;;;5114865;28;19920;-42
2022/03/01 02:46:07;;;;;;;;;;;19.90;35.90;;;;;;5109803;28;19924;-46
2022/03/01 02:48:33;;;;;;;;;;;19.90;35.90;;;;;;5115656;28;19926;-43
2022/03/01 02:51:00;;;;;;;;;;;19.80;35.80;;;;;;5097848;28;20261;-45
2022/03/01 02:53:27;;;;;;;;;;;19.80;35.80;;;;;;5110817;28;19958;-45
2022/03/01 02:55:55;;;;;;;;;;;19.80;35.80;;;;;;5113937;28;19967;-45
2022/03/01 02:58:21;;;;;;;;;;;19.80;35.80;;;;;;5114552;28;19969;-51
2022/03/01 03:00:48;;;;;;;;;;;19.80;35.70;;;;;;5045541;28;1821825;-44
2022/03/01 03:03:15;;;;;;;;;;;19.80;35.70;;;;;;5098636;28;19920;-49
2022/03/01 03:05:41;;;;;;;;;;;19.80;35.70;;;;;;5114245;28;19926;-49
2022/03/01 03:08:10;;;;;;;;;;;19.80;35.70;;;;;;5108340;28;19962;-45
2022/03/01 03:10:39;;;;;;;;;;;19.80;35.70;;;;;;5133206;27;19923;-46
2022/03/01 03:13:08;;;;;;;;;;;19.80;35.70;;;;;;5111021;28;19919;-43
2022/03/01 03:15:34;;;;;;;;;;;19.80;35.60;;;;;;5096063;28;19919;-45
2022/03/01 03:18:01;;;;;;;;;;;19.80;35.70;;;;;;5132773;27;19919;-46
2022/03/01 03:20:28;;;;;;;;;;;19.80;35.60;;;;;;5111312;28;19919;-47
2022/03/01 03:22:54;;;;;;;;;;;19.80;35.60;;;;;;5130701;27;19920;-46
2022/03/01 03:25:21;;;;;;;;;;;19.80;35.60;;;;;;5098954;28;19969;-48
2022/03/01 03:27:48;;;;;;;;;;;19.80;35.60;;;;;;5113940;28;20018;-44
2022/03/01 03:30:16;;;;;;;;;;;19.80;35.60;;;;;;5115500;28;19926;-43
2022/03/01 03:32:42;;;;;;;;;;;19.80;35.60;;;;;;5114726;28;20425;-44
2022/03/01 03:35:09;;;;;;;;;;;19.80;35.60;;;;;;5112763;28;20268;-44
2022/03/01 03:37:36;;;;;;;;;;;19.80;35.60;;;;;;5116554;28;20326;-46
2022/03/01 03:40:03;;;;;;;;;;;19.80;35.60;;;;;;5113299;28;19959;-46
2022/03/01 03:42:29;;;;;;;;;;;19.80;35.50;;;;;;5098297;28;19920;-44
2022/03/01 03:44:56;;;;;;;;;;;19.80;35.50;;;;;;5079449;28;19924;-45
2022/03/01 03:47:27;;;;;;;;;;;19.80;35.50;;;;;;5110590;28;19926;-44
2022/03/01 03:49:56;;;;;;;;;;;19.80;35.50;;;;;;5115985;28;19930;-43
2022/03/01 03:52:23;;;;;;;;;;;19.80;36.00;;;;;;5094174;28;19969;-43
2022/03/01 03:54:50;;;;;;;;;;;19.80;35.50;;;;;;5094969;28;20033;-43
2022/03/01 03:57:16;;;;;;;;;;;19.80;35.50;;;;;;5114622;28;19924;-43
2022/03/01 03:59:43;;;;;;;;;;;19.80;35.40;;;;;;5112259;28;19965;-43
2022/03/01 04:02:10;;;;;;;;;;;19.80;35.40;;;;;;5097400;28;20276;-43
2022/03/01 04:04:38;;;;;;;;;;;19.80;35.40;;;;;;5113619;28;20376;-44
2022/03/01 04:07:04;;;;;;;;;;;19.80;35.40;;;;;;5112163;28;19919;-43
2022/03/01 04:09:31;;;;;;;;;;;19.80;35.40;;;;;;5103661;28;19920;-44
2022/03/01 04:11:58;;;;;;;;;;;19.80;35.40;;;;;;5077685;28;19920;-45
2022/03/01 04:14:25;;;;;;;;;;;19.80;35.40;;;;;;5082610;28;19920;-45
2022/03/01 04:16:51;;;;;;;;;;;19.80;35.30;;;;;;5097808;28;20261;-43
2022/03/01 04:19:18;;;;;;;;;;;19.80;35.30;;;;;;5128913;27;20136;-45
2022/03/01 04:21:46;;;;;;;;;;;19.80;35.30;;;;;;5092789;28;19919;-45
2022/03/01 04:24:13;;;;;;;;;;;19.80;35.30;;;;;;5112919;28;19920;-45
2022/03/01 04:26:40;;;;;;;;;;;19.80;35.30;;;;;;5094371;28;19920;-43
2022/03/01 04:29:07;;;;;;;;;;;19.80;35.30;;;;;;5094265;28;19919;-47
2022/03/01 04:31:33;;;;;;;;;;;19.80;35.30;;;;;;5080564;28;19967;-43
2022/03/01 04:34:00;;;;;;;;;;;19.80;35.20;;;;;;5108181;28;19920;-43
2022/03/01 04:36:27;;;;;;;;;;;19.80;35.30;;;;;;5113324;28;19926;-43
2022/03/01 04:38:55;;;;;;;;;;;19.80;35.30;;;;;;5113619;28;19926;-43
2022/03/01 04:41:21;;;;;;;;;;;19.80;35.20;;;;;;5109141;28;19927;-43
2022/03/01 04:43:49;;;;;;;;;;;19.80;35.20;;;;;;5114110;28;19926;-43
2022/03/01 04:46:18;;;;;;;;;;;19.80;35.20;;;;;;5094420;28;19919;-43
2022/03/01 04:48:45;;;;;;;;;;;19.80;35.20;;;;;;5092000;28;19919;-45
2022/03/01 04:51:11;;;;;;;;;;;19.80;35.20;;;;;;5098908;28;20010;-43
2022/03/01 04:53:38;;;;;;;;;;;19.80;35.10;;;;;;5095819;28;19951;-43
2022/03/01 04:56:07;;;;;;;;;;;19.80;35.10;;;;;;5114128;28;19927;-44
2022/03/01 04:58:34;;;;;;;;;;;19.80;35.10;;;;;;5097243;28;19924;-43
2022/03/01 05:01:01;;;;;;;;;;;19.80;35.10;;;;;;5092531;28;19919;-43
2022/03/01 05:03:30;;;;;;;;;;;19.80;35.10;;;;;;5096422;28;19920;-44
2022/03/01 05:05:57;;;;;;;;;;;19.80;35.10;;;;;;5129010;28;20011;-44
2022/03/01 05:08:24;;;;;;;;;;;19.80;35.10;;;;;;5093957;28;19923;-43
2022/03/01 05:10:50;;;;;;;;;;;19.80;35.10;;;;;;5094821;28;19920;-44
2022/03/01 05:13:18;;;;;;;;;;;19.80;35.10;;;;;;5092733;28;19920;-45
2022/03/01 05:15:45;;;;;;;;;;;19.80;35.10;;;;;;5091578;28;20319;-46
2022/03/01 05:18:12;;;;;;;;;;;19.80;35.10;;;;;;5110008;28;20410;-44
2022/03/01 05:20:38;;;;;;;;;;;19.80;35.00;;;;;;5108687;28;19930;-43
2022/03/01 05:23:05;;;;;;;;;;;19.80;35.00;;;;;;5111513;28;19998;-43
2022/03/01 05:25:33;;;;;;;;;;;19.80;35.00;;;;;;5113575;28;19920;-43
2022/03/01 05:27:59;;;;;;;;;;;19.80;35.00;;;;;;5107848;28;20026;-43
2022/03/01 05:30:27;;;;;;;;;;;19.80;35.00;;;;;;5073341;28;19920;-45
2022/03/01 05:32:54;;;;;;;;;;;19.80;35.00;;;;;;5091781;28;19924;-43
2022/03/01 05:35:22;;;;;;;;;;;19.80;35.00;;;;;;5130941;28;19919;-45
2022/03/01 05:37:49;;;;;;;;;;;19.80;35.00;;;;;;5106821;28;20302;-43
2022/03/01 05:40:16;;;;;;;;;;;19.80;34.90;;;;;;5093307;28;19919;-44
2022/03/01 05:42:46;;;;;;;;;;;19.80;34.90;;;;;;5099384;28;19920;-44
2022/03/01 05:45:13;;;;;;;;;;;19.80;34.90;;;;;;5072328;28;20362;-43
2022/03/01 05:47:43;;;;;;;;;;;19.70;34.80;;;;;;5084744;28;19920;-43
2022/03/01 05:50:10;;;;;;;;;;;19.80;34.90;;;;;;5096491;28;19923;-43
2022/03/01 05:52:36;;;;;;;;;;;19.70;34.80;;;;;;5094838;28;19920;-43
2022/03/01 05:55:04;;;;;;;;;;;19.80;34.90;;;;;;5115196;28;20355;-43
2022/03/01 05:57:30;;;;;;;;;;;19.70;34.70;;;;;;5099265;28;19920;-43
2022/03/01 05:59:57;;;;;;;;;;;19.70;34.70;;;;;;5095657;28;19919;-43
2022/03/01 06:02:24;;;;;;;;;;;19.70;34.70;;;;;;5099908;28;19919;-43
2022/03/01 06:04:53;;;;;;;;;;;19.70;34.70;;;;;;5099123;28;20387;-43
2022/03/01 06:07:19;;;;;;;;;;;19.70;34.70;;;;;;5094693;28;19920;-43
2022/03/01 06:09:46;;;;;;;;;;;19.70;34.70;;;;;;5114718;28;19924;-43
2022/03/01 06:12:13;;;;;;;;;;;19.70;34.60;;;;;;5114002;28;19920;-44
2022/03/01 06:14:39;;;;;;;;;;;19.70;34.70;;;;;;5096336;28;19920;-43
2022/03/01 06:17:06;;;;;;;;;;;19.70;34.70;;;;;;5093914;28;19928;-44
2022/03/01 06:19:33;;;;;;;;;;;19.70;34.70;;;;;;5097259;28;20379;-43
2022/03/01 06:22:01;;;;;;;;;;;19.70;34.60;;;;;;5115878;28;20006;-43
2022/03/01 06:24:29;;;;;;;;;;;19.70;34.60;;;;;;5116117;28;20345;-43
2022/03/01 06:26:55;;;;;;;;;;;19.70;34.60;;;;;;5111974;28;19946;-43
2022/03/01 06:29:22;;;;;;;;;;;19.70;35.20;;;;;;5115838;28;19926;-43
2022/03/01 06:31:48;;;;;;;;;;;19.70;34.60;;;;;;5093261;27;19926;-43
2022/03/01 06:34:15;;;;;;;;;;;19.70;34.70;;;;;;5088290;28;20357;-43
2022/03/01 06:36:42;;;;;;;;;;;19.70;34.70;;;;;;5098578;28;20035;-43
2022/03/01 06:39:10;;;;;;;;;;;19.70;34.70;;;;;;5114993;28;19950;-43
2022/03/01 06:41:37;;;;;;;;;;;19.70;34.70;;;;;;5111616;28;19924;-46
2022/03/01 06:44:04;;;;;;;;;;;19.70;34.70;;;;;;5095889;28;20313;-43
2022/03/01 06:46:30;;;;;;;;;;;19.70;34.70;;;;;;5092415;28;20324;-43
2022/03/01 06:48:58;;;;;;;;;;;19.70;34.70;;;;;;5129172;27;19985;-43
2022/03/01 06:51:25;;;;;;;;;;;19.70;34.70;;;;;;5098159;28;19927;-44
2022/03/01 06:53:51;;;;;;;;;;;19.70;34.70;;;;;;5095537;28;19920;-43
2022/03/01 06:56:20;;;;;;;;;;;19.70;34.60;;;;;;5094740;28;19926;-43
2022/03/01 06:58:46;;;;;;;;;;;19.70;34.60;;;;;;5115847;28;19970;-45
2022/03/01 07:01:13;;;;;;;;;;;19.70;34.60;;;;;;5109848;28;19920;-43
2022/03/01 07:03:42;;;;;;;;;;;19.70;34.60;;;;;;5098572;28;19924;-45
2022/03/01 07:06:08;;;;;;;;;;;19.70;34.60;;;;;;5113854;28;19949;-43
2022/03/01 07:08:35;;;;;;;;;;;19.70;34.60;;;;;;5110751;28;20388;-43
2022/03/01 07:11:01;;;;;;;;;;;19.70;34.50;;;;;;5100104;28;19926;-45
2022/03/01 07:13:32;;;;;;;;;;;19.70;34.50;;;;;;5116864;28;20272;-43
2022/03/01 07:15:59;;;;;;;;;;;19.70;34.50;;;;;;5095791;28;20006;-46
2022/03/01 07:18:26;;;;;;;;;;;19.70;34.50;;;;;;5096604;28;19974;-43
2022/03/01 07:20:52;;;;;;;;;;;19.70;34.50;;;;;;5088788;28;19927;-43
2022/03/01 07:23:19;;;;;;;;;;;19.70;34.50;;;;;;5094937;28;20022;-43
2022/03/01 07:25:46;;;;;;;;;;;19.70;34.40;;;;;;5112512;28;19942;-52
2022/03/01 07:28:13;;;;;;;;;;;19.70;34.40;;;;;;5108099;28;19924;-56
2022/03/01 07:30:41;;;;;;;;;;;19.70;33.90;;;;;;5108096;28;19926;-51
2022/03/01 07:33:07;;;;;;;;;;;19.70;33.00;;;;;;5097036;28;19923;-52
2022/03/01 07:35:34;;;;;;;;;;;19.70;32.10;;;;;;5091618;28;19924;-50
2022/03/01 07:38:02;;;;;;;;;;;19.70;31.60;;;;;;5102241;28;19919;-58
2022/03/01 07:40:29;;;;;;;;;;;19.60;31.20;;;;;;5107741;28;19919;-49
2022/03/01 07:42:56;;;;;;;;;;;19.60;31.00;;;;;;5108538;28;19962;-52
2022/03/01 07:45:23;;;;;;;;;;;19.60;30.80;;;;;;5087560;28;19943;-43
2022/03/01 07:47:51;;;;;;;;;;;19.60;30.80;;;;;;5089776;28;19919;-42
2022/03/01 07:50:18;;;;;;;;;;;19.60;31.30;;;;;;5102060;28;19973;-43
2022/03/01 07:52:44;;;;;;;;;;;19.50;31.60;;;;;;5108958;28;19923;-42
2022/03/01 07:55:11;;;;;;;;;;;19.60;32.00;;;;;;5093657;28;20364;-43
2022/03/01 07:57:38;;;;;;;;;;;19.60;32.30;;;;;;5092309;28;20382;-42
2022/03/01 08:00:05;;;;;;;;;;;19.60;32.50;;;;;;5109497;28;20365;-44
2022/03/01 08:02:32;;;;;;;;;;;19.50;32.60;;;;;;5112937;27;20264;-44
2022/03/01 08:05:01;;;;;;;;;;;19.60;32.80;;;;;;5107744;28;19919;-43
2022/03/01 08:07:28;;;;;;;;;;;19.60;33.00;;;;;;5107306;28;20272;-46
2022/03/01 08:09:55;;;;;;;;;;;19.60;33.00;;;;;;5107989;28;19920;-49
2022/03/01 08:12:22;;;;;;;;;;;19.60;33.10;;;;;;5109253;28;19974;-42
2022/03/01 08:14:48;;;;;;;;;;;19.60;33.20;;;;;;5105984;28;20368;-42
2022/03/01 08:17:15;;;;;;;;;;;19.60;33.30;;;;;;5103594;28;20349;-45
2022/03/01 08:19:42;;;;;;;;;;;19.70;33.30;;;;;;5113952;28;19973;-43
2022/03/01 08:22:10;;;;;;;;;;;19.70;33.40;;;;;;5111037;28;20419;-44
2022/03/01 08:24:36;;;;;;;;;;;19.70;33.40;;;;;;5108209;28;19924;-42
2022/03/01 08:27:03;;;;;;;;;;;19.70;33.50;;;;;;5108249;28;19979;-43
2022/03/01 08:29:30;;;;;;;;;;;19.70;33.50;;;;;;5107619;28;19972;-42
2022/03/01 08:31:57;;;;;;;;;;;19.70;33.50;;;;;;5122136;27;20371;-43
2022/03/01 08:34:24;;;;;;;;;;;19.70;33.60;;;;;;5093490;28;20011;-43
2022/03/01 08:36:50;;;;;;;;;;;19.70;33.60;;;;;;5111292;28;20209;-45
2022/03/01 08:39:18;;;;;;;;;;;19.70;33.60;;;;;;5093460;28;20015;-45
2022/03/01 08:41:45;;;;;;;;;;;19.70;33.60;;;;;;5091242;28;19920;-46
2022/03/01 08:44:12;;;;;;;;;;;19.70;33.60;;;;;;5093689;28;19919;-46
2022/03/01 08:46:39;;;;;;;;;;;19.70;33.60;;;;;;5110016;28;19919;-44
2022/03/01 08:49:06;;;;;;;;;;;19.70;33.60;;;;;;5108952;28;19927;-43
2022/03/01 08:51:33;;;;;;;;;;;19.70;33.60;;;;;;5089796;28;19920;-47
2022/03/01 08:54:02;;;;;;;;;;;19.70;33.60;;;;;;5108352;28;19976;-44
2022/03/01 08:56:30;;;;;;;;;;;19.70;33.70;;;;;;5089814;28;20263;-44
2022/03/01 08:58:57;;;;;;;;;;;19.70;33.70;;;;;;5107060;28;19955;-44
2022/03/01 09:01:23;;;;;;;;;;;19.80;33.80;;;;;;5093058;28;19927;-45
2022/03/01 09:03:50;;;;;;;;;;;19.80;33.80;;;;;;5105479;28;19928;-47
2022/03/01 09:06:17;;;;;;;;;;;19.80;33.80;;;;;;5087525;28;19930;-46
2022/03/01 09:08:44;;;;;;;;;;;19.80;33.80;;;;;;5091120;28;20359;-47
2022/03/01 09:11:11;;;;;;;;;;;19.80;33.90;;;;;;5087358;28;19927;-43
2022/03/01 09:13:40;;;;;;;;;;;19.80;33.90;;;;;;5090756;28;20006;-43
2022/03/01 09:16:07;;;;;;;;;;;19.80;33.90;;;;;;5087814;28;19927;-47
2022/03/01 09:18:34;;;;;;;;;;;19.80;33.90;;;;;;5108877;28;19927;-44
2022/03/01 09:21:01;;;;;;;;;;;19.80;33.90;;;;;;5089989;28;19983;-46
2022/03/01 09:23:28;;;;;;;;;;;19.80;33.90;;;;;;5107853;28;19923;-43
2022/03/01 09:25:54;;;;;;;;;;;19.80;33.90;;;;;;5107172;28;19923;-43
2022/03/01 09:28:22;;;;;;;;;;;19.90;34.00;;;;;;5109306;28;19927;-43
2022/03/01 09:30:50;;;;;;;;;;;19.90;34.00;;;;;;5090866;27;19919;-48
2022/03/01 09:33:17;;;;;;;;;;;19.90;34.00;;;;;;5109053;28;19927;-47
2022/03/01 09:35:43;;;;;;;;;;;19.90;34.00;;;;;;5094342;28;20018;-43
2022/03/01 09:38:10;;;;;;;;;;;19.90;34.00;;;;;;5107806;28;19951;-42
2022/03/01 09:40:37;;;;;;;;;;;19.90;34.00;;;;;;5123637;27;19951;-44
2022/03/01 09:43:04;;;;;;;;;;;19.90;34.00;;;;;;5109952;28;20006;-44
2022/03/01 09:45:30;;;;;;;;;;;19.90;34.00;;;;;;5093461;28;20298;-44
2022/03/01 09:47:59;;;;;;;;;;;19.80;33.90;;;;;;5109940;28;19973;-45
2022/03/01 09:50:28;;;;;;;;;;;19.90;34.00;;;;;;5114175;28;19920;-43
2022/03/01 09:52:55;;;;;;;;;;;19.90;34.00;;;;;;5109864;28;19919;-45
2022/03/01 09:55:22;;;;;;;;;;;19.90;34.00;;;;;;5094442;28;19923;-48
2022/03/01 09:57:48;;;;;;;;;;;19.90;34.00;;;;;;5094344;28;19985;-44
2022/03/01 10:00:15;;;;;;;;;;;19.90;34.00;;;;;;5111490;28;19919;-46
2022/03/01 10:02:42;;;;;;;;;;;19.90;34.00;;;;;;5109697;28;20261;-46
2022/03/01 10:05:11;;;;;;;;;;;19.90;34.00;;;;;;5110182;28;20314;-43
2022/03/01 10:07:38;;;;;;;;;;;19.90;34.00;;;;;;5113261;28;19984;-46
2022/03/01 10:10:06;;;;;;;;;;;19.90;34.10;;;;;;5111148;28;20323;-45
2022/03/01 10:12:33;;;;;;;;;;;19.90;34.00;;;;;;5098000;28;19974;-42
2022/03/01 10:15:03;;;;;;;;;;;19.90;34.00;;;;;;5087223;28;19920;-42
2022/03/01 10:17:33;;;;;;;;;;;19.90;34.00;;;;;;5093351;28;20014;-44
2022/03/01 10:20:01;;;;;;;;;;;19.90;34.00;;;;;;5097650;28;19920;-47
2022/03/01 10:22:29;;;;;;;;;;;19.90;34.00;;;;;;5099191;28;19990;-45
2022/03/01 10:24:56;;;;;;;;;;;19.90;34.00;;;;;;5087655;28;19928;-45
2022/03/01 10:27:27;;;;;;;;;;;19.90;34.00;;;;;;5110058;28;19967;-43
2022/03/01 10:29:54;;;;;;;;;;;20.00;34.10;;;;;;5110405;28;20004;-43
2022/03/01 10:32:20;;;;;;;;;;;19.90;34.00;;;;;;5096108;28;20011;-47
2022/03/01 10:35:00;;;;;;;;;;;20.00;34.10;;;;;;5117204;28;19988;-43
2022/03/01 10:37:27;;;;;;;;;;;20.00;34.10;;;;;;5096571;28;19920;-43
2022/03/01 10:43:00;;;;;;;;;;;19.90;34.10;;;;;;5111544;27;19922;-45
2022/03/01 10:45:31;;;;;;;;;;;20.00;34.10;;;;;;5109378;28;19927;-48
2022/03/01 10:47:57;;;;;;;;;;;20.00;34.10;;;;;;5108622;28;19920;-42
2022/03/01 10:50:24;;;;;;;;;;;20.00;34.10;;;;;;5110215;28;20058;-43
2022/03/01 10:52:51;;;;;;;;;;;20.00;34.10;;;;;;5111725;28;20010;-46
2022/03/01 10:55:24;;;;;;;;;;;20.00;34.10;;;;;;5109988;28;20034;-43
2022/03/01 10:58:04;;;;;;;;;;;20.00;34.10;;;;;;5102539;28;20272;-45
2022/03/01 11:00:31;;;;;;;;;;;20.00;34.20;;;;;;5094112;28;19927;-48
2022/03/01 11:02:57;;;;;;;;;;;20.00;34.20;;;;;;5109226;28;19986;-43
2022/03/01 11:05:24;;;;;;;;;;;20.00;34.20;;;;;;5108674;28;19947;-43
2022/03/01 11:07:51;;;;;;;;;;;20.00;34.20;;;;;;5110096;28;19935;-44
2022/03/01 11:10:18;;;;;;;;;;;20.00;34.20;;;;;;5107774;28;19946;-44
2022/03/01 11:12:44;;;;;;;;;;;20.00;34.20;;;;;;5106387;28;19974;-46
2022/03/01 11:15:15;;;;;;;;;;;20.00;34.20;;;;;;5108683;28;19920;-47
2022/03/01 11:17:45;;;;;;;;;;;20.00;34.20;;;;;;5105856;28;19950;-44
2022/03/01 11:20:13;;;;;;;;;;;20.00;34.10;;;;;;5106634;28;19967;-42
2022/03/01 11:22:41;;;;;;;;;;;20.00;34.20;;;;;;5107180;28;19931;-46
2022/03/01 11:25:08;;;;;;;;;;;20.00;34.20;;;;;;5108672;28;19931;-42
2022/03/01 11:27:44;;;;;;;;;;;20.00;34.20;;;;;;5104573;28;19950;-43
2022/03/01 11:30:11;;;;;;;;;;;20.00;34.20;;;;;;5109680;28;20157;-46
2022/03/01 11:32:42;;;;;;;;;;;20.00;34.20;;;;;;5107515;28;20399;-42
2022/03/01 11:35:15;;;;;;;;;;;20.00;34.20;;;;;;5103030;28;19966;-45
2022/03/01 11:37:43;;;;;;;;;;;20.10;34.30;;;;;;5103575;28;20015;-43
2022/03/01 11:40:19;;;;;;;;;;;20.00;34.20;;;;;;5108737;28;19978;-47
2022/03/01 11:42:48;;;;;;;;;;;20.00;34.20;;;;;;5126137;28;19943;-45
2022/03/01 11:45:15;;;;;;;;;;;20.10;34.40;;;;;;5111402;28;19919;-45
2022/03/01 11:47:43;;;;;;;;;;;20.10;34.40;;;;;;5112658;28;19962;-44
2022/03/01 11:50:10;;;;;;;;;;;20.10;34.30;;;;;;5104568;28;20022;-46
2022/03/01 11:52:46;;;;;;;;;;;20.00;34.20;;;;;;5107343;28;19926;-43
2022/03/01 11:55:13;;;;;;;;;;;20.10;34.20;;;;;;5096911;28;19964;-44
2022/03/01 11:57:39;;;;;;;;;;;20.00;34.00;;;;;;5097401;28;19977;-44
2022/03/01 12:00:07;;;;;;;;;;;20.00;33.80;;;;;;5091231;28;19980;-47
2022/03/01 12:02:34;;;;;;;;;;;20.00;33.60;;;;;;5126561;27;19955;-46
2022/03/01 12:05:02;;;;;;;;;;;20.00;33.40;;;;;;5088514;28;20189;-47
2022/03/01 12:07:30;;;;;;;;;;;20.00;33.30;;;;;;5097588;28;19920;-45
2022/03/01 12:09:57;;;;;;;;;;;20.00;33.20;;;;;;5093835;28;19945;-47
2022/03/01 12:12:34;;;;;;;;;;;20.00;33.20;;;;;;5114371;28;19959;-43
2022/03/01 12:15:01;;;;;;;;;;;19.90;33.20;;;;;;5093526;28;19920;-44
2022/03/01 12:17:28;;;;;;;;;;;20.00;33.40;;;;;;5087261;28;20007;-48
2022/03/01 12:20:02;;;;;;;;;;;20.00;33.40;;;;;;5095058;28;19927;-46
2022/03/01 12:22:29;;;;;;;;;;;19.90;33.40;;;;;;5110448;28;19920;-43
2022/03/01 12:24:57;;;;;;;;;;;19.90;33.40;;;;;;5106090;28;19965;-45
2022/03/01 12:27:23;;;;;;;;;;;19.90;33.40;;;;;;5103722;28;19954;-45
2022/03/01 12:29:51;;;;;;;;;;;19.90;33.50;;;;;;5104276;28;19920;-43
2022/03/01 12:32:19;;;;;;;;;;;19.90;33.50;;;;;;5104349;28;19980;-43
2022/03/01 12:34:46;;;;;;;;;;;19.90;33.50;;;;;;5103932;28;19969;-46
2022/03/01 12:37:17;;;;;;;;;;;19.90;33.60;;;;;;5103254;28;19920;-49
2022/03/01 12:39:44;;;;;;;;;;;19.90;33.60;;;;;;5103507;28;19920;-43
2022/03/01 12:42:10;;;;;;;;;;;19.90;33.60;;;;;;5122454;28;20299;-43
2022/03/01 12:44:37;;;;;;;;;;;20.00;33.80;;;;;;5103896;28;19992;-43
2022/03/01 12:47:05;;;;;;;;;;;19.90;33.70;;;;;;5104058;28;19947;-45
2022/03/01 12:49:34;;;;;;;;;;;19.90;33.70;;;;;;5104197;28;19926;-49
2022/03/01 12:52:00;;;;;;;;;;;19.90;33.70;;;;;;5102558;28;19980;-44
2022/03/01 12:54:28;;;;;;;;;;;20.00;33.90;;;;;;5103173;28;20365;-48
2022/03/01 12:56:56;;;;;;;;;;;19.90;33.80;;;;;;5102382;28;20303;-43
2022/03/01 12:59:23;;;;;;;;;;;20.00;33.90;;;;;;5104370;28;19973;-44
2022/03/01 13:01:50;;;;;;;;;;;20.00;34.00;;;;;;5103830;28;19920;-44
2022/03/01 13:04:17;;;;;;;;;;;20.00;34.00;;;;;;5100758;28;19964;-52
2022/03/01 13:06:44;;;;;;;;;;;20.00;34.10;;;;;;5100975;28;19920;-47
2022/03/01 13:09:11;;;;;;;;;;;20.00;34.10;;;;;;5104834;28;19931;-42
2022/03/01 13:11:39;;;;;;;;;;;20.00;34.10;;;;;;5102706;28;19942;-47
2022/03/01 13:14:07;;;;;;;;;;;20.00;34.10;;;;;;5103735;28;19946;-43
2022/03/01 13:16:34;;;;;;;;;;;20.00;34.10;;;;;;5101864;28;19990;-46
2022/03/01 13:19:01;;;;;;;;;;;20.00;34.10;;;;;;5102911;28;19969;-44
2022/03/01 13:21:28;;;;;;;;;;;20.00;34.10;;;;;;5103559;28;20298;-43
2022/03/01 13:23:55;;;;;;;;;;;20.00;34.20;;;;;;5119369;28;19943;-43
2022/03/01 13:26:22;;;;;;;;;;;20.00;34.20;;;;;;5103858;28;20018;-45
2022/03/01 13:28:50;;;;;;;;;;;20.00;34.20;;;;;;5102711;28;19973;-48
2022/03/01 13:31:20;;;;;;;;;;;20.10;34.30;;;;;;5103849;28;19941;-45
2022/03/01 13:33:47;;;;;;;;;;;20.10;34.30;;;;;;5118483;28;19942;-43
2022/03/01 13:36:14;;;;;;;;;;;20.10;34.40;;;;;;5102839;28;19920;-42
2022/03/01 13:38:41;;;;;;;;;;;20.10;34.40;;;;;;5102993;28;19941;-45
2022/03/01 13:41:08;;;;;;;;;;;20.10;34.40;;;;;;5102277;28;20218;-43
2022/03/01 13:43:34;;;;;;;;;;;20.10;34.40;;;;;;5101171;28;20241;-43
2022/03/01 13:46:04;;;;;;;;;;;20.10;34.40;;;;;;5100333;28;19919;-41
2022/03/01 13:48:31;;;;;;;;;;;20.10;34.40;;;;;;5116859;28;19988;-48
2022/03/01 13:51:01;;;;;;;;;;;20.10;34.50;;;;;;5117947;28;20412;-42
2022/03/01 13:53:30;;;;;;;;;;;20.10;34.40;;;;;;5120963;28;19926;-42
2022/03/01 13:55:56;;;;;;;;;;;20.10;34.50;;;;;;5119324;28;19927;-42
2022/03/01 13:58:23;;;;;;;;;;;20.10;34.50;;;;;;5099454;28;20010;-44
2022/03/01 14:00:51;;;;;;;;;;;20.10;34.50;;;;;;5099913;28;19977;-50
2022/03/01 14:03:19;;;;;;;;;;;20.10;34.50;;;;;;5104146;28;20034;-47
2022/03/01 14:05:52;;;;;;;;;;;20.10;34.50;;;;;;5101730;28;19955;-43
2022/03/01 14:08:19;;;;;;;;;;;20.10;34.50;;;;;;5120492;28;19926;-44
2022/03/01 14:10:46;;;;;;;;;;;20.10;34.50;;;;;;5101876;28;19984;-48
2022/03/01 14:13:15;;;;;;;;;;;20.10;34.60;;;;;;5099599;28;20014;-46
2022/03/01 14:15:43;;;;;;;;;;;20.10;34.60;;;;;;5100872;28;20364;-44
2022/03/01 14:18:10;;;;;;;;;;;20.10;34.60;;;;;;5101545;28;19920;-45
2022/03/01 14:20:38;;;;;;;;;;;20.10;34.60;;;;;;5098588;28;19924;-43
2022/03/01 14:23:05;;;;;;;;;;;20.20;34.70;;;;;;5099813;28;19927;-43